sensor_id;sensor_type;location;lat;lon;timestamp;temperature;humidity
2571;DHT22;1295;51.130;6.732;2023-03-01T00:01:03;5.60;99.90
2571;DHT22;1295;51.130;6.732;2023-03-01T00:03:28;5.60;99.90
2571;DHT22;1295;51.130;6.732;2023-03-01T00:05:54;5.60;99.90
2571;DHT22;1295;51.130;6.732;2023-03-01T00:08:20;5.60;99.90
2571;DHT22;1295;51.130;6.732;2023-03-01T00:10:45;5.60;99.90
2571;DHT22;1295;51.130;6.732;2023-03-01T00:13:11;5.50;99.90
2571;DHT22;1295;51.130;6.732;2023-03-01T00:15:38;5.50;99.90
2571;DHT22;1295;51.130;6.732;2023-03-01T00:18:04;5.50;99.90
2571;DHT22;1295;51.130;6.732;2023-03-01T00:20:30;5.50;99.90
2571;DHT22;1295;51.130;6.732;2023-03-01T00:22:57;5.50;99.90
2571;DHT22;1295;51.130;6.732;2023-03-01T00:25:30;5.50;99.90
2571;DHT22;1295;51.130;6.732;2023-03-01T00:27:56;5.50;99.90
2571;DHT22;1295;51.130;6.732;2023-03-01T00:30:22;5.50;99.90
2571;DHT22;1295;51.130;6.732;2023-03-01T00:32:47;5.40;99.90
2571;DHT22;1295;51.130;6.732;2023-03-01T00:35:13;5.40;99.90
2571;DHT22;1295;51.130;6.732;2023-03-01T00:37:39;5.40;99.90
2571;DHT22;1295;51.130;6.732;2023-03-01T00:40:07;5.40;99.90
2571;DHT22;1295;51.130;6.732;2023-03-01T00:42:33;5.40;99.90
2571;DHT22;1295;51.130;6.732;2023-03-01T00:44:59;5.40;99.90
2571;DHT22;1295;51.130;6.732;2023-03-01T00:47:25;5.40;99.90
2571;DHT22;1295;51.130;6.732;2023-03-01T00:49:51;5.30;99.90
2571;DHT22;1295;51.130;6.732;2023-03-01T00:52:17;5.30;99.90
2571;DHT22;1295;51.130;6.732;2023-03-01T00:54:43;5.30;99.90
2571;DHT22;1295;51.130;6.732;2023-03-01T00:57:09;5.30;99.90
2571;DHT22;1295;51.130;6.732;2023-03-01T00:59:35;5.30;99.90
2571;DHT22;1295;51.130;6.732;2023-03-01T01:02:01;5.30;99.90
2571;DHT22;1295;51.130;6.732;2023-03-01T01:04:26;5.30;99.90
2571;DHT22;1295;51.130;6.732;2023-03-01T01:06:52;5.30;99.90
2571;DHT22;1295;51.130;6.732;2023-03-01T01:09:18;5.30;99.90
2571;DHT22;1295;51.130;6.732;2023-03-01T01:11:45;5.20;99.90
2571;DHT22;1295;51.130;6.732;2023-03-01T01:14:10;5.20;99.90
2571;DHT22;1295;51.130;6.732;2023-03-01T01:16:36;5.20;99.90
2571;DHT22;1295;51.130;6.732;2023-03-01T01:19:01;5.20;99.90
2571;DHT22;1295;51.130;6.732;2023-03-01T01:21:29;5.20;99.90
2571;DHT22;1295;51.130;6.732;2023-03-01T01:23:54;5.20;99.90
2571;DHT22;1295;51.130;6.732;2023-03-01T01:26:21;5.20;99.90
2571;DHT22;1295;51.130;6.732;2023-03-01T01:28:46;5.20;99.90
2571;DHT22;1295;51.130;6.732;2023-03-01T01:31:12;5.20;99.90
2571;DHT22;1295;51.130;6.732;2023-03-01T01:33:38;5.10;99.90
2571;DHT22;1295;51.130;6.732;2023-03-01T01:36:05;5.10;99.90
2571;DHT22;1295;51.130;6.732;2023-03-01T01:38:31;5.10;99.90
2571;DHT22;1295;51.130;6.732;2023-03-01T01:40:57;5.10;99.90
2571;DHT22;1295;51.130;6.732;2023-03-01T01:43:27;5.10;99.90
2571;DHT22;1295;51.130;6.732;2023-03-01T01:45:52;5.10;99.90
2571;DHT22;1295;51.130;6.732;2023-03-01T01:48:19;5.10;99.90
2571;DHT22;1295;51.130;6.732;2023-03-01T01:50:43;5.10;99.90
2571;DHT22;1295;51.130;6.732;2023-03-01T01:53:10;5.10;99.90
2571;DHT22;1295;51.130;6.732;2023-03-01T01:55:35;5.10;99.90
2571;DHT22;1295;51.130;6.732;2023-03-01T01:58:02;5.00;99.90
2571;DHT22;1295;51.130;6.732;2023-03-01T02:00:27;5.00;99.90
2571;DHT22;1295;51.130;6.732;2023-03-01T02:02:56;5.00;99.90
2571;DHT22;1295;51.130;6.732;2023-03-01T02:05:26;5.00;99.90
2571;DHT22;1295;51.130;6.732;2023-03-01T02:07:51;5.00;99.90
2571;DHT22;1295;51.130;6.732;2023-03-01T02:10:17;5.00;99.90
2571;DHT22;1295;51.130;6.732;2023-03-01T02:12:42;5.00;99.90
2571;DHT22;1295;51.130;6.732;2023-03-01T02:15:09;5.00;99.90
2571;DHT22;1295;51.130;6.732;2023-03-01T02:17:35;4.90;99.90
2571;DHT22;1295;51.130;6.732;2023-03-01T02:20:29;4.90;99.90
2571;DHT22;1295;51.130;6.732;2023-03-01T02:22:55;4.90;99.90
2571;DHT22;1295;51.130;6.732;2023-03-01T02:28:29;4.90;99.90
2571;DHT22;1295;51.130;6.732;2023-03-01T02:30:54;4.90;99.90
2571;DHT22;1295;51.130;6.732;2023-03-01T02:33:26;4.80;99.90
2571;DHT22;1295;51.130;6.732;2023-03-01T02:35:52;4.80;99.90
2571;DHT22;1295;51.130;6.732;2023-03-01T02:38:18;4.80;99.90
2571;DHT22;1295;51.130;6.732;2023-03-01T02:40:43;4.80;99.90
2571;DHT22;1295;51.130;6.732;2023-03-01T02:43:09;4.80;99.90
2571;DHT22;1295;51.130;6.732;2023-03-01T02:45:35;4.80;99.90
2571;DHT22;1295;51.130;6.732;2023-03-01T02:48:01;4.80;99.90
2571;DHT22;1295;51.130;6.732;2023-03-01T02:50:45;4.80;99.90
2571;DHT22;1295;51.130;6.732;2023-03-01T02:53:13;4.70;99.90
2571;DHT22;1295;51.130;6.732;2023-03-01T02:55:36;4.70;99.90
2571;DHT22;1295;51.130;6.732;2023-03-01T02:58:02;4.70;99.90
2571;DHT22;1295;51.130;6.732;2023-03-01T03:00:31;4.70;99.90
2571;DHT22;1295;51.130;6.732;2023-03-01T03:02:54;4.70;99.90
2571;DHT22;1295;51.130;6.732;2023-03-01T03:05:21;4.70;99.90
2571;DHT22;1295;51.130;6.732;2023-03-01T03:07:46;4.70;99.90
2571;DHT22;1295;51.130;6.732;2023-03-01T03:10:13;4.70;99.90
2571;DHT22;1295;51.130;6.732;2023-03-01T03:12:37;4.70;99.90
2571;DHT22;1295;51.130;6.732;2023-03-01T03:15:04;4.70;99.90
2571;DHT22;1295;51.130;6.732;2023-03-01T03:17:29;4.60;99.90
2571;DHT22;1295;51.130;6.732;2023-03-01T03:19:55;4.60;99.90
2571;DHT22;1295;51.130;6.732;2023-03-01T03:22:22;4.60;99.90
2571;DHT22;1295;51.130;6.732;2023-03-01T03:24:47;4.60;99.90
2571;DHT22;1295;51.130;6.732;2023-03-01T03:27:13;4.60;99.90
2571;DHT22;1295;51.130;6.732;2023-03-01T03:29:38;4.60;99.90
2571;DHT22;1295;51.130;6.732;2023-03-01T03:32:04;4.50;99.90
2571;DHT22;1295;51.130;6.732;2023-03-01T03:34:30;4.50;99.90
2571;DHT22;1295;51.130;6.732;2023-03-01T03:36:56;4.60;99.90
2571;DHT22;1295;51.130;6.732;2023-03-01T03:39:23;4.50;99.90
2571;DHT22;1295;51.130;6.732;2023-03-01T03:41:48;4.50;99.90
2571;DHT22;1295;51.130;6.732;2023-03-01T03:44:14;4.50;99.90
2571;DHT22;1295;51.130;6.732;2023-03-01T03:46:39;4.50;99.90
2571;DHT22;1295;51.130;6.732;2023-03-01T03:49:06;4.50;99.90
2571;DHT22;1295;51.130;6.732;2023-03-01T03:51:31;4.40;99.90
2571;DHT22;1295;51.130;6.732;2023-03-01T03:53:57;4.50;99.90
2571;DHT22;1295;51.130;6.732;2023-03-01T03:56:23;4.30;99.90
2571;DHT22;1295;51.130;6.732;2023-03-01T03:58:50;4.40;99.90
2571;DHT22;1295;51.130;6.732;2023-03-01T04:01:15;4.40;99.90
2571;DHT22;1295;51.130;6.732;2023-03-01T04:03:41;4.40;99.90
2571;DHT22;1295;51.130;6.732;2023-03-01T04:06:07;4.40;99.90
2571;DHT22;1295;51.130;6.732;2023-03-01T04:08:32;4.40;99.90
2571;DHT22;1295;51.130;6.732;2023-03-01T04:11:00;4.40;99.90
2571;DHT22;1295;51.130;6.732;2023-03-01T04:13:25;4.40;99.90
2571;DHT22;1295;51.130;6.732;2023-03-01T04:15:51;4.40;99.90
2571;DHT22;1295;51.130;6.732;2023-03-01T04:18:16;4.30;99.90
2571;DHT22;1295;51.130;6.732;2023-03-01T04:20:42;4.30;99.90
2571;DHT22;1295;51.130;6.732;2023-03-01T04:23:11;4.30;99.90
2571;DHT22;1295;51.130;6.732;2023-03-01T04:25:38;4.30;99.90
2571;DHT22;1295;51.130;6.732;2023-03-01T04:28:03;4.30;99.90
2571;DHT22;1295;51.130;6.732;2023-03-01T04:30:29;4.30;99.90
2571;DHT22;1295;51.130;6.732;2023-03-01T04:32:55;4.30;99.90
2571;DHT22;1295;51.130;6.732;2023-03-01T04:35:21;4.30;99.90
2571;DHT22;1295;51.130;6.732;2023-03-01T04:37:47;4.20;99.90
2571;DHT22;1295;51.130;6.732;2023-03-01T04:40:14;4.20;99.90
2571;DHT22;1295;51.130;6.732;2023-03-01T04:42:39;4.20;99.90
2571;DHT22;1295;51.130;6.732;2023-03-01T04:45:06;4.20;99.90
2571;DHT22;1295;51.130;6.732;2023-03-01T04:47:32;4.20;99.90
2571;DHT22;1295;51.130;6.732;2023-03-01T04:49:57;4.20;99.90
2571;DHT22;1295;51.130;6.732;2023-03-01T04:52:23;4.20;99.90
2571;DHT22;1295;51.130;6.732;2023-03-01T04:54:49;4.20;99.90
2571;DHT22;1295;51.130;6.732;2023-03-01T04:57:15;4.10;99.90
2571;DHT22;1295;51.130;6.732;2023-03-01T04:59:40;4.10;99.90
2571;DHT22;1295;51.130;6.732;2023-03-01T05:02:06;4.10;99.90
2571;DHT22;1295;51.130;6.732;2023-03-01T05:04:31;4.10;99.90
2571;DHT22;1295;51.130;6.732;2023-03-01T05:06:57;4.10;99.90
2571;DHT22;1295;51.130;6.732;2023-03-01T05:09:23;4.10;99.90
2571;DHT22;1295;51.130;6.732;2023-03-01T05:11:49;4.10;99.90
2571;DHT22;1295;51.130;6.732;2023-03-01T05:14:15;4.10;99.90
2571;DHT22;1295;51.130;6.732;2023-03-01T05:16:41;4.10;99.90
2571;DHT22;1295;51.130;6.732;2023-03-01T05:19:06;4.00;99.90
2571;DHT22;1295;51.130;6.732;2023-03-01T05:21:32;4.00;99.90
2571;DHT22;1295;51.130;6.732;2023-03-01T05:23:58;4.00;99.90
2571;DHT22;1295;51.130;6.732;2023-03-01T05:26:24;4.00;99.90
2571;DHT22;1295;51.130;6.732;2023-03-01T05:28:50;4.00;99.90
2571;DHT22;1295;51.130;6.732;2023-03-01T05:31:15;4.00;99.90
2571;DHT22;1295;51.130;6.732;2023-03-01T05:33:41;4.00;99.90
2571;DHT22;1295;51.130;6.732;2023-03-01T05:36:08;4.00;99.90
2571;DHT22;1295;51.130;6.732;2023-03-01T05:38:34;4.00;99.90
2571;DHT22;1295;51.130;6.732;2023-03-01T05:40:59;3.90;99.90
2571;DHT22;1295;51.130;6.732;2023-03-01T05:43:25;3.90;99.90
2571;DHT22;1295;51.130;6.732;2023-03-01T05:45:51;3.90;99.90
2571;DHT22;1295;51.130;6.732;2023-03-01T05:48:16;3.90;99.90
2571;DHT22;1295;51.130;6.732;2023-03-01T05:50:43;3.90;99.90
2571;DHT22;1295;51.130;6.732;2023-03-01T05:53:11;3.80;99.90
2571;DHT22;1295;51.130;6.732;2023-03-01T05:55:35;3.90;99.90
2571;DHT22;1295;51.130;6.732;2023-03-01T05:58:02;3.80;99.90
2571;DHT22;1295;51.130;6.732;2023-03-01T06:00:27;3.80;99.90
2571;DHT22;1295;51.130;6.732;2023-03-01T06:02:53;3.80;99.90
2571;DHT22;1295;51.130;6.732;2023-03-01T06:05:18;3.80;99.90
2571;DHT22;1295;51.130;6.732;2023-03-01T06:07:43;3.80;99.90
2571;DHT22;1295;51.130;6.732;2023-03-01T06:10:10;3.80;99.90
2571;DHT22;1295;51.130;6.732;2023-03-01T06:12:37;3.80;99.90
2571;DHT22;1295;51.130;6.732;2023-03-01T06:15:03;3.80;99.90
2571;DHT22;1295;51.130;6.732;2023-03-01T06:17:29;3.80;99.90
2571;DHT22;1295;51.130;6.732;2023-03-01T06:19:55;3.70;99.90
2571;DHT22;1295;51.130;6.732;2023-03-01T06:22:26;3.70;99.90
2571;DHT22;1295;51.130;6.732;2023-03-01T06:24:56;3.70;99.90
2571;DHT22;1295;51.130;6.732;2023-03-01T06:27:22;3.70;99.90
2571;DHT22;1295;51.130;6.732;2023-03-01T06:29:48;3.70;99.90
2571;DHT22;1295;51.130;6.732;2023-03-01T06:32:14;3.60;99.90
2571;DHT22;1295;51.130;6.732;2023-03-01T06:34:40;3.70;99.90
2571;DHT22;1295;51.130;6.732;2023-03-01T06:37:05;3.60;99.90
2571;DHT22;1295;51.130;6.732;2023-03-01T06:39:31;3.60;99.90
2571;DHT22;1295;51.130;6.732;2023-03-01T06:41:56;3.60;99.90
2571;DHT22;1295;51.130;6.732;2023-03-01T06:44:22;3.60;99.90
2571;DHT22;1295;51.130;6.732;2023-03-01T06:46:48;3.60;99.90
2571;DHT22;1295;51.130;6.732;2023-03-01T06:49:14;3.60;99.90
2571;DHT22;1295;51.130;6.732;2023-03-01T06:51:41;3.60;99.90
2571;DHT22;1295;51.130;6.732;2023-03-01T06:54:06;3.60;99.90
2571;DHT22;1295;51.130;6.732;2023-03-01T06:56:33;3.50;99.90
2571;DHT22;1295;51.130;6.732;2023-03-01T06:58:58;3.50;99.90
2571;DHT22;1295;51.130;6.732;2023-03-01T07:01:24;3.50;99.90
2571;DHT22;1295;51.130;6.732;2023-03-01T07:03:50;3.50;99.90
2571;DHT22;1295;51.130;6.732;2023-03-01T07:06:16;3.50;99.90
2571;DHT22;1295;51.130;6.732;2023-03-01T07:08:42;3.50;99.90
2571;DHT22;1295;51.130;6.732;2023-03-01T07:11:08;3.50;99.90
2571;DHT22;1295;51.130;6.732;2023-03-01T07:13:33;3.50;99.90
2571;DHT22;1295;51.130;6.732;2023-03-01T07:15:59;3.50;99.90
2571;DHT22;1295;51.130;6.732;2023-03-01T07:18:25;3.50;99.90
2571;DHT22;1295;51.130;6.732;2023-03-01T07:20:50;3.50;99.90
2571;DHT22;1295;51.130;6.732;2023-03-01T07:23:16;3.50;99.90
2571;DHT22;1295;51.130;6.732;2023-03-01T07:25:42;3.50;99.90
2571;DHT22;1295;51.130;6.732;2023-03-01T07:28:08;3.50;99.90
2571;DHT22;1295;51.130;6.732;2023-03-01T07:30:34;3.50;99.90
2571;DHT22;1295;51.130;6.732;2023-03-01T07:32:59;3.50;99.90
2571;DHT22;1295;51.130;6.732;2023-03-01T07:35:25;3.50;99.90
2571;DHT22;1295;51.130;6.732;2023-03-01T07:37:51;3.50;99.90
2571;DHT22;1295;51.130;6.732;2023-03-01T07:40:21;3.50;99.90
2571;DHT22;1295;51.130;6.732;2023-03-01T07:42:47;3.50;99.90
2571;DHT22;1295;51.130;6.732;2023-03-01T07:45:13;3.50;99.90
2571;DHT22;1295;51.130;6.732;2023-03-01T07:47:38;3.40;99.90
2571;DHT22;1295;51.130;6.732;2023-03-01T07:50:05;3.40;99.90
2571;DHT22;1295;51.130;6.732;2023-03-01T07:52:31;3.40;99.90
2571;DHT22;1295;51.130;6.732;2023-03-01T07:54:57;3.40;99.90
2571;DHT22;1295;51.130;6.732;2023-03-01T07:57:23;3.50;99.90
2571;DHT22;1295;51.130;6.732;2023-03-01T07:59:49;3.60;99.90
2571;DHT22;1295;51.130;6.732;2023-03-01T08:02:15;3.50;99.90
2571;DHT22;1295;51.130;6.732;2023-03-01T08:04:41;3.60;99.90
2571;DHT22;1295;51.130;6.732;2023-03-01T08:07:06;3.70;99.90
2571;DHT22;1295;51.130;6.732;2023-03-01T08:09:34;3.80;99.90
2571;DHT22;1295;51.130;6.732;2023-03-01T08:11:57;3.80;99.90
2571;DHT22;1295;51.130;6.732;2023-03-01T08:14:24;3.90;99.90
2571;DHT22;1295;51.130;6.732;2023-03-01T08:16:50;3.90;99.90
2571;DHT22;1295;51.130;6.732;2023-03-01T08:19:16;4.00;99.90
2571;DHT22;1295;51.130;6.732;2023-03-01T08:21:42;4.00;99.90
2571;DHT22;1295;51.130;6.732;2023-03-01T08:24:08;4.10;99.90
2571;DHT22;1295;51.130;6.732;2023-03-01T08:26:33;4.20;99.90
2571;DHT22;1295;51.130;6.732;2023-03-01T08:29:00;4.20;99.90
2571;DHT22;1295;51.130;6.732;2023-03-01T08:31:27;4.10;99.90
2571;DHT22;1295;51.130;6.732;2023-03-01T08:33:52;4.30;99.90
2571;DHT22;1295;51.130;6.732;2023-03-01T08:36:17;4.20;99.90
2571;DHT22;1295;51.130;6.732;2023-03-01T08:38:43;4.40;99.90
2571;DHT22;1295;51.130;6.732;2023-03-01T08:41:08;4.70;99.90
2571;DHT22;1295;51.130;6.732;2023-03-01T08:43:34;4.50;99.90
2571;DHT22;1295;51.130;6.732;2023-03-01T08:46:00;4.40;99.90
2571;DHT22;1295;51.130;6.732;2023-03-01T08:48:27;5.00;99.90
2571;DHT22;1295;51.130;6.732;2023-03-01T08:50:52;5.00;99.90
2571;DHT22;1295;51.130;6.732;2023-03-01T08:53:17;4.80;99.90
2571;DHT22;1295;51.130;6.732;2023-03-01T08:55:43;5.40;99.90
2571;DHT22;1295;51.130;6.732;2023-03-01T08:58:09;5.10;99.90
2571;DHT22;1295;51.130;6.732;2023-03-01T09:00:34;5.00;99.90
2571;DHT22;1295;51.130;6.732;2023-03-01T09:03:00;4.90;99.90
2571;DHT22;1295;51.130;6.732;2023-03-01T09:05:26;4.70;99.90
2571;DHT22;1295;51.130;6.732;2023-03-01T09:07:51;5.30;99.90
2571;DHT22;1295;51.130;6.732;2023-03-01T09:10:27;4.90;99.90
2571;DHT22;1295;51.130;6.732;2023-03-01T09:12:53;4.60;99.90
2571;DHT22;1295;51.130;6.732;2023-03-01T09:15:18;4.70;99.90
2571;DHT22;1295;51.130;6.732;2023-03-01T09:17:44;4.70;99.90
2571;DHT22;1295;51.130;6.732;2023-03-01T09:20:10;5.60;99.90
2571;DHT22;1295;51.130;6.732;2023-03-01T09:22:36;5.70;99.90
2571;DHT22;1295;51.130;6.732;2023-03-01T09:25:02;6.40;99.90
2571;DHT22;1295;51.130;6.732;2023-03-01T09:27:27;6.50;99.90
2571;DHT22;1295;51.130;6.732;2023-03-01T09:29:53;6.60;99.90
2571;DHT22;1295;51.130;6.732;2023-03-01T09:32:19;5.60;99.90
2571;DHT22;1295;51.130;6.732;2023-03-01T09:34:44;5.60;99.90
2571;DHT22;1295;51.130;6.732;2023-03-01T09:37:17;5.60;99.90
2571;DHT22;1295;51.130;6.732;2023-03-01T09:39:43;5.60;99.90
2571;DHT22;1295;51.130;6.732;2023-03-01T09:42:11;6.10;99.90
2571;DHT22;1295;51.130;6.732;2023-03-01T09:44:42;6.10;99.90
2571;DHT22;1295;51.130;6.732;2023-03-01T09:47:09;6.00;99.90
2571;DHT22;1295;51.130;6.732;2023-03-01T09:49:34;5.80;99.90
2571;DHT22;1295;51.130;6.732;2023-03-01T09:52:38;5.70;99.90
2571;DHT22;1295;51.130;6.732;2023-03-01T09:54:59;6.20;99.90
2571;DHT22;1295;51.130;6.732;2023-03-01T09:58:34;5.50;99.90
2571;DHT22;1295;51.130;6.732;2023-03-01T10:00:13;6.50;99.90
2571;DHT22;1295;51.130;6.732;2023-03-01T10:02:57;6.90;99.90
2571;DHT22;1295;51.130;6.732;2023-03-01T10:05:35;6.50;99.90
2571;DHT22;1295;51.130;6.732;2023-03-01T10:08:10;5.70;99.90
2571;DHT22;1295;51.130;6.732;2023-03-01T10:10:32;5.40;99.90
2571;DHT22;1295;51.130;6.732;2023-03-01T10:12:55;7.00;99.90
2571;DHT22;1295;51.130;6.732;2023-03-01T10:15:25;6.70;99.90
2571;DHT22;1295;51.130;6.732;2023-03-01T10:17:50;6.80;99.90
2571;DHT22;1295;51.130;6.732;2023-03-01T10:20:18;6.40;99.90
2571;DHT22;1295;51.130;6.732;2023-03-01T10:22:43;5.80;99.90
2571;DHT22;1295;51.130;6.732;2023-03-01T10:25:12;6.10;99.90
2571;DHT22;1295;51.130;6.732;2023-03-01T10:27:38;6.10;99.90
2571;DHT22;1295;51.130;6.732;2023-03-01T10:30:34;7.30;99.90
2571;DHT22;1295;51.130;6.732;2023-03-01T10:32:48;6.90;99.90
2571;DHT22;1295;51.130;6.732;2023-03-01T10:35:20;6.20;99.90
2571;DHT22;1295;51.130;6.732;2023-03-01T10:40:17;6.50;99.90
2571;DHT22;1295;51.130;6.732;2023-03-01T10:42:47;7.10;99.90
2571;DHT22;1295;51.130;6.732;2023-03-01T10:45:35;6.20;99.90
2571;DHT22;1295;51.130;6.732;2023-03-01T10:48:08;7.40;99.90
2571;DHT22;1295;51.130;6.732;2023-03-01T10:50:31;6.50;99.90
2571;DHT22;1295;51.130;6.732;2023-03-01T10:52:57;6.70;99.90
2571;DHT22;1295;51.130;6.732;2023-03-01T10:55:39;7.30;99.90
2571;DHT22;1295;51.130;6.732;2023-03-01T10:58:08;7.30;99.90
2571;DHT22;1295;51.130;6.732;2023-03-01T11:00:33;6.50;99.90
2571;DHT22;1295;51.130;6.732;2023-03-01T11:03:02;6.50;99.90
2571;DHT22;1295;51.130;6.732;2023-03-01T11:05:27;6.00;99.90
2571;DHT22;1295;51.130;6.732;2023-03-01T11:07:54;6.00;99.90
2571;DHT22;1295;51.130;6.732;2023-03-01T11:10:21;6.10;99.90
2571;DHT22;1295;51.130;6.732;2023-03-01T11:12:46;6.30;99.90
2571;DHT22;1295;51.130;6.732;2023-03-01T11:15:22;6.80;99.90
2571;DHT22;1295;51.130;6.732;2023-03-01T11:17:46;6.70;99.90
2571;DHT22;1295;51.130;6.732;2023-03-01T11:20:31;6.40;99.90
2571;DHT22;1295;51.130;6.732;2023-03-01T11:22:58;7.30;99.90
2571;DHT22;1295;51.130;6.732;2023-03-01T11:25:26;8.70;99.90
2571;DHT22;1295;51.130;6.732;2023-03-01T11:27:49;7.80;99.90
2571;DHT22;1295;51.130;6.732;2023-03-01T11:30:31;8.70;99.90
2571;DHT22;1295;51.130;6.732;2023-03-01T11:33:17;8.80;99.90
2571;DHT22;1295;51.130;6.732;2023-03-01T11:35:45;8.80;99.80
2571;DHT22;1295;51.130;6.732;2023-03-01T11:38:16;9.00;99.90
2571;DHT22;1295;51.130;6.732;2023-03-01T11:40:43;7.00;99.90
2571;DHT22;1295;51.130;6.732;2023-03-01T11:43:15;7.00;99.90
2571;DHT22;1295;51.130;6.732;2023-03-01T11:45:43;6.90;99.90
2571;DHT22;1295;51.130;6.732;2023-03-01T11:48:31;8.60;99.90
2571;DHT22;1295;51.130;6.732;2023-03-01T11:50:53;8.60;99.90
2571;DHT22;1295;51.130;6.732;2023-03-01T11:54:11;8.90;99.20
2571;DHT22;1295;51.130;6.732;2023-03-01T11:56:20;9.00;99.90
2571;DHT22;1295;51.130;6.732;2023-03-01T12:04:13;7.20;99.90
2571;DHT22;1295;51.130;6.732;2023-03-01T12:06:50;7.10;99.90
2571;DHT22;1295;51.130;6.732;2023-03-01T12:12:11;6.20;99.90
2571;DHT22;1295;51.130;6.732;2023-03-01T12:14:54;6.60;99.90
2571;DHT22;1295;51.130;6.732;2023-03-01T12:17:20;6.80;99.90
2571;DHT22;1295;51.130;6.732;2023-03-01T12:23:05;6.30;99.90
2571;DHT22;1295;51.130;6.732;2023-03-01T12:25:34;6.50;99.90
2571;DHT22;1295;51.130;6.732;2023-03-01T12:28:10;6.50;99.90
2571;DHT22;1295;51.130;6.732;2023-03-01T12:30:35;6.50;99.90
2571;DHT22;1295;51.130;6.732;2023-03-01T12:33:13;6.50;99.90
2571;DHT22;1295;51.130;6.732;2023-03-01T12:35:43;8.00;99.90
2571;DHT22;1295;51.130;6.732;2023-03-01T12:38:16;8.00;99.90
2571;DHT22;1295;51.130;6.732;2023-03-01T12:40:46;7.10;99.90
2571;DHT22;1295;51.130;6.732;2023-03-01T12:43:22;6.60;99.90
2571;DHT22;1295;51.130;6.732;2023-03-01T12:46:10;6.60;99.90
2571;DHT22;1295;51.130;6.732;2023-03-01T12:48:51;7.70;99.90
2571;DHT22;1295;51.130;6.732;2023-03-01T12:51:15;7.30;99.90
2571;DHT22;1295;51.130;6.732;2023-03-01T12:53:42;6.90;99.90
2571;DHT22;1295;51.130;6.732;2023-03-01T12:56:08;6.90;99.90
2571;DHT22;1295;51.130;6.732;2023-03-01T12:58:34;7.10;99.90
2571;DHT22;1295;51.130;6.732;2023-03-01T13:02:32;6.80;99.90
2571;DHT22;1295;51.130;6.732;2023-03-01T13:07:11;7.30;99.90
2571;DHT22;1295;51.130;6.732;2023-03-01T13:09:38;7.20;99.90
2571;DHT22;1295;51.130;6.732;2023-03-01T13:12:02;7.00;99.90
2571;DHT22;1295;51.130;6.732;2023-03-01T13:14:35;7.00;99.90
2571;DHT22;1295;51.130;6.732;2023-03-01T13:16:59;7.20;99.90
2571;DHT22;1295;51.130;6.732;2023-03-01T13:19:25;7.80;99.90
2571;DHT22;1295;51.130;6.732;2023-03-01T13:21:51;7.10;99.90
2571;DHT22;1295;51.130;6.732;2023-03-01T13:24:33;7.60;99.90
2571;DHT22;1295;51.130;6.732;2023-03-01T13:27:21;6.70;99.90
2571;DHT22;1295;51.130;6.732;2023-03-01T13:29:46;7.50;99.90
2571;DHT22;1295;51.130;6.732;2023-03-01T13:32:24;7.00;99.90
2571;DHT22;1295;51.130;6.732;2023-03-01T13:34:49;7.10;99.90
2571;DHT22;1295;51.130;6.732;2023-03-01T13:37:20;6.80;99.90
2571;DHT22;1295;51.130;6.732;2023-03-01T13:39:46;6.70;99.90
2571;DHT22;1295;51.130;6.732;2023-03-01T13:44:49;6.80;99.90
2571;DHT22;1295;51.130;6.732;2023-03-01T13:47:16;7.50;99.90
2571;DHT22;1295;51.130;6.732;2023-03-01T13:49:46;7.30;99.90
2571;DHT22;1295;51.130;6.732;2023-03-01T13:54:45;7.50;99.90
2571;DHT22;1295;51.130;6.732;2023-03-01T13:57:12;8.00;99.90
2571;DHT22;1295;51.130;6.732;2023-03-01T13:59:36;8.10;99.90
2571;DHT22;1295;51.130;6.732;2023-03-01T14:02:02;7.70;99.90
2571;DHT22;1295;51.130;6.732;2023-03-01T14:04:28;7.50;99.90
2571;DHT22;1295;51.130;6.732;2023-03-01T14:09:32;7.90;99.90
2571;DHT22;1295;51.130;6.732;2023-03-01T14:14:48;7.90;99.90
2571;DHT22;1295;51.130;6.732;2023-03-01T14:17:35;7.20;99.90
2571;DHT22;1295;51.130;6.732;2023-03-01T14:20:00;8.00;99.90
2571;DHT22;1295;51.130;6.732;2023-03-01T14:22:25;8.00;99.90
2571;DHT22;1295;51.130;6.732;2023-03-01T14:24:52;7.40;99.90
2571;DHT22;1295;51.130;6.732;2023-03-01T14:27:17;8.30;99.90
2571;DHT22;1295;51.130;6.732;2023-03-01T14:29:42;8.00;99.90
2571;DHT22;1295;51.130;6.732;2023-03-01T14:32:12;7.30;99.90
2571;DHT22;1295;51.130;6.732;2023-03-01T14:34:38;8.00;99.90
2571;DHT22;1295;51.130;6.732;2023-03-01T14:37:09;8.00;99.90
2571;DHT22;1295;51.130;6.732;2023-03-01T14:39:35;8.00;99.90
2571;DHT22;1295;51.130;6.732;2023-03-01T14:42:00;7.40;99.90
2571;DHT22;1295;51.130;6.732;2023-03-01T14:44:26;7.10;99.90
2571;DHT22;1295;51.130;6.732;2023-03-01T14:46:54;7.40;99.90
2571;DHT22;1295;51.130;6.732;2023-03-01T14:49:20;7.40;99.90
2571;DHT22;1295;51.130;6.732;2023-03-01T14:51:51;7.30;99.90
2571;DHT22;1295;51.130;6.732;2023-03-01T14:54:27;7.20;99.90
2571;DHT22;1295;51.130;6.732;2023-03-01T14:56:54;7.40;99.90
2571;DHT22;1295;51.130;6.732;2023-03-01T14:59:22;7.60;99.90
2571;DHT22;1295;51.130;6.732;2023-03-01T15:01:48;6.90;99.90
2571;DHT22;1295;51.130;6.732;2023-03-01T15:04:13;6.80;99.90
2571;DHT22;1295;51.130;6.732;2023-03-01T15:06:39;7.20;99.90
2571;DHT22;1295;51.130;6.732;2023-03-01T15:09:04;6.80;99.90
2571;DHT22;1295;51.130;6.732;2023-03-01T15:11:31;6.90;99.90
2571;DHT22;1295;51.130;6.732;2023-03-01T15:13:56;6.90;99.90
2571;DHT22;1295;51.130;6.732;2023-03-01T15:16:23;6.90;99.90
2571;DHT22;1295;51.130;6.732;2023-03-01T15:18:50;6.90;99.90
2571;DHT22;1295;51.130;6.732;2023-03-01T15:21:15;7.10;99.90
2571;DHT22;1295;51.130;6.732;2023-03-01T15:23:40;7.30;99.90
2571;DHT22;1295;51.130;6.732;2023-03-01T15:26:16;7.50;99.90
2571;DHT22;1295;51.130;6.732;2023-03-01T15:28:34;7.50;99.90
2571;DHT22;1295;51.130;6.732;2023-03-01T15:31:04;7.20;99.90
2571;DHT22;1295;51.130;6.732;2023-03-01T15:33:32;7.20;99.90
2571;DHT22;1295;51.130;6.732;2023-03-01T15:35:57;7.20;99.90
2571;DHT22;1295;51.130;6.732;2023-03-01T15:38:29;7.20;99.90
2571;DHT22;1295;51.130;6.732;2023-03-01T15:40:53;7.10;99.90
2571;DHT22;1295;51.130;6.732;2023-03-01T15:43:38;7.20;99.90
2571;DHT22;1295;51.130;6.732;2023-03-01T15:46:03;7.40;99.90
2571;DHT22;1295;51.130;6.732;2023-03-01T15:48:30;7.60;99.90
2571;DHT22;1295;51.130;6.732;2023-03-01T15:50:57;7.50;99.90
2571;DHT22;1295;51.130;6.732;2023-03-01T15:53:22;7.40;99.90
2571;DHT22;1295;51.130;6.732;2023-03-01T15:55:48;7.20;99.90
2571;DHT22;1295;51.130;6.732;2023-03-01T15:58:15;7.10;99.90
2571;DHT22;1295;51.130;6.732;2023-03-01T16:00:40;7.20;99.90
2571;DHT22;1295;51.130;6.732;2023-03-01T16:03:06;7.20;99.90
2571;DHT22;1295;51.130;6.732;2023-03-01T16:05:33;7.50;99.90
2571;DHT22;1295;51.130;6.732;2023-03-01T16:07:58;7.50;99.90
2571;DHT22;1295;51.130;6.732;2023-03-01T16:10:25;7.20;99.90
2571;DHT22;1295;51.130;6.732;2023-03-01T16:12:50;7.20;99.90
2571;DHT22;1295;51.130;6.732;2023-03-01T16:15:17;7.20;99.90
2571;DHT22;1295;51.130;6.732;2023-03-01T16:17:42;7.40;99.90
2571;DHT22;1295;51.130;6.732;2023-03-01T16:20:09;7.30;99.90
2571;DHT22;1295;51.130;6.732;2023-03-01T16:22:35;7.30;99.90
2571;DHT22;1295;51.130;6.732;2023-03-01T16:25:02;7.30;99.90
2571;DHT22;1295;51.130;6.732;2023-03-01T16:27:27;7.30;99.90
2571;DHT22;1295;51.130;6.732;2023-03-01T16:29:53;7.30;99.90
2571;DHT22;1295;51.130;6.732;2023-03-01T16:32:30;7.40;99.90
2571;DHT22;1295;51.130;6.732;2023-03-01T16:34:55;7.40;99.90
2571;DHT22;1295;51.130;6.732;2023-03-01T16:37:22;7.40;99.90
2571;DHT22;1295;51.130;6.732;2023-03-01T16:39:47;7.40;99.90
2571;DHT22;1295;51.130;6.732;2023-03-01T16:42:13;7.40;99.90
2571;DHT22;1295;51.130;6.732;2023-03-01T16:44:39;7.30;99.90
2571;DHT22;1295;51.130;6.732;2023-03-01T16:47:04;7.40;99.90
2571;DHT22;1295;51.130;6.732;2023-03-01T16:49:30;7.40;99.90